Time;durP1;ratioP1;P1;durP2;ratioP2;P2;SDS_P1;SDS_P2;PMS_P1;PMS_P2;Temp;Humidity;BMP_temperature;BMP_pressure;BME280_temperature;BME280_humidity;BME280_pressure;Samples;Min_cycle;Max_cycle;Signal;HPM_P1;HPM_P2
2021/07/24 00:01:04;;;;;;;13.63;9.10;;;;;;;26.89;57.66;97451.59;5048439;28;20213;-69
2021/07/24 00:03:32;;;;;;;10.20;7.87;;;;;;;27.03;57.76;97448.72;5032278;28;20238;-69
2021/07/24 00:05:59;;;;;;;15.93;8.20;;;;;;;26.76;58.51;97438.03;5032699;28;20304;-68
2021/07/24 00:08:26;;;;;;;12.37;9.10;;;;;;;26.83;58.26;97430.94;5050175;28;20210;-69
2021/07/24 00:10:55;;;;;;;13.63;9.77;;;;;;;27.26;57.17;97426.34;5044299;28;20220;-69
2021/07/24 00:13:23;;;;;;;19.27;9.40;;;;;;;27.21;57.73;97429.25;5040536;28;20223;-69
2021/07/24 00:15:50;;;;;;;12.93;8.80;;;;;;;27.24;56.78;97425.06;5033544;28;20207;-69
2021/07/24 00:18:18;;;;;;;17.07;8.53;;;;;;;27.18;56.75;97412.66;5035181;28;20211;-69
2021/07/24 00:20:45;;;;;;;13.23;8.23;;;;;;;27.18;56.56;97409.91;5043112;28;20302;-69
2021/07/24 00:23:12;;;;;;;16.00;8.80;;;;;;;27.26;56.29;97414.59;5038629;28;20730;-69
2021/07/24 00:25:40;;;;;;;11.53;7.90;;;;;;;27.04;58.29;97414.69;5044767;28;20213;-69
2021/07/24 00:28:09;;;;;;;18.50;8.30;;;;;;;27.04;57.42;97404.56;5044844;28;20256;-69
2021/07/24 00:30:40;;;;;;;11.97;7.97;;;;;;;27.23;56.78;97404.28;5037233;28;20681;-69
2021/07/24 00:33:08;;;;;;;12.23;8.30;;;;;;;27.31;56.53;97398.00;5034348;28;20719;-69
2021/07/24 00:35:36;;;;;;;14.10;8.53;;;;;;;27.41;56.22;97401.22;5047002;28;20239;-69
2021/07/24 00:38:03;;;;;;;21.37;8.47;;;;;;;27.26;56.22;97407.19;5042015;28;20672;-68
2021/07/24 00:40:32;;;;;;;11.83;8.57;;;;;;;27.31;56.06;97409.75;5050631;28;20237;-69
2021/07/24 00:43:01;;;;;;;11.83;8.13;;;;;;;27.27;56.05;97408.78;5041854;28;20227;-69
2021/07/24 00:45:31;;;;;;;14.37;9.03;;;;;;;27.23;56.38;97394.13;5034675;28;20257;-69
2021/07/24 00:48:00;;;;;;;11.00;8.47;;;;;;;27.27;55.74;97394.28;5032658;28;20198;-69
2021/07/24 00:50:28;;;;;;;12.90;8.17;;;;;;;27.11;57.07;97388.44;5043810;28;20217;-69
2021/07/24 00:53:00;;;;;;;12.73;8.50;;;;;;;27.40;56.28;97385.91;5039778;28;20218;-70
2021/07/24 00:55:27;;;;;;;12.60;8.83;;;;;;;27.31;56.13;97393.31;5047481;28;20210;-69
2021/07/24 00:57:55;;;;;;;15.13;8.90;;;;;;;27.30;55.42;97386.22;5046132;28;20202;-69
2021/07/24 01:00:22;;;;;;;12.60;9.27;;;;;;;27.35;55.46;97388.00;5033611;28;20218;-69
2021/07/24 01:02:51;;;;;;;12.97;9.53;;;;;;;27.10;56.69;97389.56;5035535;28;20244;-69
2021/07/24 01:05:18;;;;;;;11.93;8.63;;;;;;;27.36;56.27;97389.63;5045117;28;20206;-69
2021/07/24 01:07:45;;;;;;;12.47;8.50;;;;;;;27.41;55.06;97390.25;5043445;28;20209;-70
2021/07/24 01:10:12;;;;;;;11.87;9.27;;;;;;;27.23;56.14;97387.84;5046044;28;20211;-69
2021/07/24 01:12:40;;;;;;;14.53;9.40;;;;;;;27.31;55.81;97373.34;5034723;28;20230;-69
2021/07/24 01:15:08;;;;;;;14.57;8.80;;;;;;;27.14;56.54;97362.34;5033751;28;20632;-69
2021/07/24 01:17:35;;;;;;;12.70;8.80;;;;;;;27.36;55.40;97359.47;5040152;28;20220;-69
2021/07/24 01:20:06;;;;;;;12.77;9.50;;;;;;;26.86;58.03;97350.09;5046259;28;20229;-69
2021/07/24 01:22:34;;;;;;;14.30;9.07;;;;;;;26.95;57.64;97359.91;5045331;28;20296;-69
2021/07/24 01:25:02;;;;;;;12.50;8.83;;;;;;;27.19;57.05;97356.72;5045404;28;20209;-69
2021/07/24 01:27:29;;;;;;;12.90;8.73;;;;;;;27.04;57.44;97348.97;5046385;28;20209;-69
2021/07/24 01:29:56;;;;;;;14.70;9.37;;;;;;;26.95;57.61;97353.66;5031363;28;20210;-69
2021/07/24 01:32:23;;;;;;;11.17;8.60;;;;;;;26.94;57.54;97357.50;5040776;28;20236;-69
2021/07/24 01:34:51;;;;;;;12.87;8.37;;;;;;;27.05;57.22;97359.59;5035460;28;20198;-69
2021/07/24 01:37:18;;;;;;;12.17;8.50;;;;;;;26.92;56.93;97366.06;5046956;28;20213;-69
2021/07/24 01:39:47;;;;;;;14.07;8.40;;;;;;;26.82;57.34;97365.53;5029207;28;20206;-69
2021/07/24 01:42:14;;;;;;;10.47;8.33;;;;;;;26.83;58.03;97364.41;5040601;28;20226;-69
2021/07/24 01:44:41;;;;;;;12.27;9.00;;;;;;;26.57;59.69;97369.84;5030822;28;20572;-69
2021/07/24 01:47:08;;;;;;;11.87;8.17;;;;;;;26.76;57.98;97369.56;5038201;28;20837;-69
2021/07/24 01:55:14;;;;;;;12.37;8.50;;;;;;;26.76;57.95;97384.03;5048288;28;20209;-69
2021/07/24 01:57:44;;;;;;;12.40;8.33;;;;;;;26.96;57.02;97386.19;5035716;28;20203;-69
2021/07/24 02:00:12;;;;;;;13.80;8.33;;;;;;;26.84;56.89;97396.97;5029270;28;20210;-69
2021/07/24 02:02:40;;;;;;;13.83;8.30;;;;;;;26.70;57.22;97403.72;5040392;28;20226;-69
2021/07/24 02:05:15;;;;;;;13.70;8.70;;;;;;;26.72;56.29;97409.66;5043870;28;20212;-69
2021/07/24 02:07:45;;;;;;;18.00;9.27;;;;;;;26.94;55.76;97409.53;5027490;28;20675;-69
2021/07/24 02:10:14;;;;;;;13.23;8.40;;;;;;;26.91;55.94;97413.72;5039505;28;20220;-69
2021/07/24 02:12:41;;;;;;;13.00;8.53;;;;;;;26.99;55.88;97414.84;5041717;28;20225;-69
2021/07/24 02:15:10;;;;;;;13.00;8.07;;;;;;;26.93;55.66;97407.94;5046148;28;20209;-69
2021/07/24 02:17:38;;;;;;;12.53;8.30;;;;;;;26.91;55.74;97412.94;5045644;28;20577;-70
2021/07/24 02:20:07;;;;;;;13.50;9.03;;;;;;;27.01;55.44;97415.38;5045495;28;20206;-69
2021/07/24 02:22:34;;;;;;;11.03;7.83;;;;;;;26.80;56.17;97408.88;5031254;28;20223;-69
2021/07/24 02:25:01;;;;;;;16.80;9.70;;;;;;;26.98;55.31;97408.59;5035506;28;20253;-69
2021/07/24 02:27:32;;;;;;;11.20;8.00;;;;;;;26.95;56.54;97402.94;5038165;28;20226;-69
2021/07/24 02:30:00;;;;;;;13.10;8.43;;;;;;;27.07;55.75;97392.16;5036523;28;20737;-69
2021/07/24 02:32:27;;;;;;;12.33;8.67;;;;;;;26.97;56.94;97395.22;5044058;28;20586;-69
2021/07/24 02:34:54;;;;;;;12.00;8.73;;;;;;;27.20;56.03;97399.44;5042290;28;20194;-69
2021/07/24 02:37:22;;;;;;;14.87;8.63;;;;;;;27.14;55.65;97396.03;5031729;28;20234;-69
2021/07/24 02:39:49;;;;;;;11.00;7.70;;;;;;;27.21;55.39;97390.91;5035183;28;20340;-69
2021/07/24 02:42:16;;;;;;;12.63;8.27;;;;;;;27.25;55.55;97389.13;5045935;28;20225;-69
2021/07/24 02:44:45;;;;;;;12.70;8.37;;;;;;;27.28;54.73;97395.91;5040502;28;20225;-69
2021/07/24 02:47:12;;;;;;;12.77;8.33;;;;;;;27.08;55.25;97385.53;5041781;28;20211;-69
2021/07/24 02:49:40;;;;;;;13.07;8.70;;;;;;;27.20;54.38;97391.22;5039617;28;20226;-69
2021/07/24 02:52:07;;;;;;;13.73;8.53;;;;;;;27.08;55.36;97389.09;5025786;28;20709;-69
2021/07/24 02:54:35;;;;;;;12.23;8.33;;;;;;;26.99;56.45;97391.03;5037530;28;20194;-69
2021/07/24 02:57:02;;;;;;;14.33;9.07;;;;;;;27.22;54.43;97397.19;5042900;28;20206;-69
2021/07/24 02:59:29;;;;;;;13.70;8.80;;;;;;;27.06;54.58;97390.56;5046470;28;20210;-69
2021/07/24 03:01:58;;;;;;;11.70;8.40;;;;;;;27.35;52.36;97393.47;5044055;28;20617;-69
2021/07/24 03:04:25;;;;;;;15.07;8.53;;;;;;;27.37;51.79;97383.00;5045338;28;20226;-69
2021/07/24 03:06:54;;;;;;;14.07;9.23;;;;;;;27.53;51.13;97381.38;5030348;28;20211;-69
2021/07/24 03:09:21;;;;;;;14.27;8.67;;;;;;;27.20;52.89;97374.78;5035111;28;20300;-69
2021/07/24 03:11:49;;;;;;;13.07;9.43;;;;;;;26.51;55.62;97371.06;5043105;28;20233;-69
2021/07/24 03:14:16;;;;;;;13.13;8.80;;;;;;;27.15;53.34;97367.50;5039809;28;20578;-69
2021/07/24 03:16:43;;;;;;;12.67;8.70;;;;;;;27.60;50.94;97374.28;5042659;28;20209;-70
2021/07/24 03:19:12;;;;;;;13.70;8.53;;;;;;;27.61;51.27;97369.59;5034875;28;20207;-69
2021/07/24 03:21:39;;;;;;;11.60;8.37;;;;;;;27.76;50.98;97364.38;5026731;28;20203;-70
2021/07/24 03:24:06;;;;;;;12.20;9.00;;;;;;;27.73;51.33;97362.31;5026936;28;20691;-69
2021/07/24 03:26:34;;;;;;;12.13;8.37;;;;;;;27.80;52.14;97351.69;5041746;28;20213;-69
2021/07/24 03:29:01;;;;;;;11.73;8.00;;;;;;;27.82;51.50;97349.41;5033747;28;20602;-70
2021/07/24 03:31:28;;;;;;;16.13;8.33;;;;;;;27.56;53.24;97351.38;5042313;28;20206;-70
2021/07/24 03:33:55;;;;;;;11.63;8.37;;;;;;;27.63;53.07;97343.47;5048057;28;20204;-70
2021/07/24 03:36:24;;;;;;;16.37;8.67;;;;;;;27.42;53.88;97341.72;5041178;28;20214;-70
2021/07/24 03:38:51;;;;;;;14.27;8.67;;;;;;;27.65;52.95;97348.59;5048172;28;20201;-70
2021/07/24 03:41:19;;;;;;;16.70;8.57;;;;;;;27.54;53.15;97339.94;5040881;28;20202;-70
2021/07/24 03:43:46;;;;;;;16.57;8.73;;;;;;;27.56;53.59;97343.16;5033442;28;20231;-70
2021/07/24 03:46:17;;;;;;;11.90;8.87;;;;;;;27.42;53.93;97347.22;5046491;28;20209;-72
2021/07/24 03:48:44;;;;;;;13.27;8.37;;;;;;;27.60;52.82;97360.56;5041886;28;20205;-70
2021/07/24 03:51:12;;;;;;;12.63;8.57;;;;;;;27.68;53.27;97356.19;5032752;28;20211;-70
2021/07/24 03:53:41;;;;;;;13.47;9.30;;;;;;;27.75;52.75;97359.22;5037857;28;20222;-70
2021/07/24 03:56:16;;;;;;;15.07;8.63;;;;;;;27.58;53.97;97351.88;5048179;28;20285;-70
2021/07/24 03:58:43;;;;;;;12.50;8.37;;;;;;;26.69;57.92;97348.13;5038396;28;20206;-70
2021/07/24 04:01:11;;;;;;;15.60;9.23;;;;;;;27.03;56.32;97361.88;5047483;28;20222;-70
2021/07/24 04:03:39;;;;;;;12.47;8.77;;;;;;;27.06;56.44;97363.16;5023337;28;20642;-70
2021/07/24 04:06:08;;;;;;;16.97;9.13;;;;;;;27.60;54.33;97385.25;5033238;28;20217;-70
2021/07/24 04:08:35;;;;;;;11.13;8.40;;;;;;;27.58;53.84;97381.22;5044694;28;20205;-70
2021/07/24 04:11:05;;;;;;;14.13;7.93;;;;;;;27.56;53.92;97388.97;5033257;28;20214;-69
2021/07/24 04:13:33;;;;;;;14.73;8.70;;;;;;;27.67;53.32;97398.47;5045555;28;20930;-70
2021/07/24 04:16:01;;;;;;;14.83;8.57;;;;;;;27.75;52.94;97406.66;5045050;28;20205;-70
2021/07/24 04:18:30;;;;;;;11.50;8.93;;;;;;;27.43;55.46;97407.19;5043566;28;20680;-71
2021/07/24 04:20:59;;;;;;;12.07;8.50;;;;;;;27.70;54.31;97417.81;5032101;28;20202;-70
2021/07/24 04:23:27;;;;;;;13.57;9.23;;;;;;;27.61;54.12;97419.75;5047518;28;20237;-70
2021/07/24 04:25:54;;;;;;;11.47;8.10;;;;;;;27.19;55.75;97414.25;5046305;28;20252;-70
2021/07/24 04:28:23;;;;;;;11.20;8.07;;;;;;;26.39;58.07;97403.72;5046590;28;20210;-70
2021/07/24 04:30:50;;;;;;;14.77;8.47;;;;;;;27.34;55.40;97397.34;5046428;28;20202;-70
2021/07/24 04:33:17;;;;;;;11.27;8.10;;;;;;;27.70;54.38;97395.03;5041788;28;20237;-70
2021/07/24 04:35:46;;;;;;;13.73;9.20;;;;;;;27.93;52.79;97394.53;5032739;28;20285;-70
2021/07/24 04:38:14;;;;;;;11.93;8.50;;;;;;;28.00;52.68;97400.34;5044192;28;20218;-70
2021/07/24 04:40:41;;;;;;;12.53;8.57;;;;;;;27.63;54.15;97401.06;5049433;28;20622;-70
2021/07/24 04:43:09;;;;;;;13.30;8.50;;;;;;;27.65;54.92;97406.19;5045243;28;20238;-70
2021/07/24 04:45:41;;;;;;;14.17;9.03;;;;;;;27.96;54.15;97423.25;5045109;28;20226;-70
2021/07/24 04:48:09;;;;;;;12.10;8.10;;;;;;;27.98;53.48;97432.00;5040560;28;20210;-70
2021/07/24 04:50:39;;;;;;;13.50;8.87;;;;;;;28.05;53.27;97437.78;5029991;28;20198;-70
2021/07/24 04:53:06;;;;;;;14.87;8.80;;;;;;;27.94;53.25;97444.75;5040950;28;20714;-70
2021/07/24 04:55:35;;;;;;;11.00;7.67;;;;;;;27.64;55.84;97437.47;5030421;28;20205;-70
2021/07/24 04:58:03;;;;;;;13.20;9.27;;;;;;;27.80;55.23;97438.63;5045364;28;20202;-70
2021/07/24 05:00:30;;;;;;;12.87;8.53;;;;;;;27.84;55.13;97425.88;5022357;28;20216;-70
2021/07/24 05:02:58;;;;;;;12.90;7.93;;;;;;;27.67;56.42;97434.91;5036832;28;20236;-70
2021/07/24 05:05:26;;;;;;;11.57;8.67;;;;;;;27.77;56.25;97420.06;5031867;28;20227;-70
2021/07/24 05:07:53;;;;;;;15.50;9.00;;;;;;;27.76;55.46;97419.25;5046103;28;20211;-70
2021/07/24 05:10:20;;;;;;;16.27;8.87;;;;;;;27.66;56.12;97432.50;5038213;28;20674;-70
2021/07/24 05:12:47;;;;;;;11.33;8.63;;;;;;;27.84;55.99;97431.34;5042906;28;20234;-70
2021/07/24 05:15:15;;;;;;;13.23;8.97;;;;;;;27.69;56.79;97426.34;5044536;28;20208;-70
2021/07/24 05:17:42;;;;;;;12.47;8.37;;;;;;;27.61;56.81;97429.94;5037896;28;20203;-70
2021/07/24 05:20:11;;;;;;;12.47;9.20;;;;;;;27.70;56.28;97442.47;5031776;28;20207;-71
2021/07/24 05:22:39;;;;;;;12.73;9.17;;;;;;;27.88;55.93;97433.13;5036065;28;20607;-70
2021/07/24 05:25:07;;;;;;;14.53;8.47;;;;;;;27.93;56.85;97443.13;5041797;28;20226;-70
2021/07/24 05:27:34;;;;;;;14.77;9.10;;;;;;;28.41;53.38;97443.66;5049089;28;20209;-71
2021/07/24 05:30:01;;;;;;;15.23;8.80;;;;;;;28.63;52.62;97443.41;5035515;28;20585;-71
2021/07/24 05:32:29;;;;;;;15.20;9.20;;;;;;;28.90;52.39;97459.44;5037917;28;20227;-71
2021/07/24 05:34:56;;;;;;;14.10;9.10;;;;;;;28.85;51.15;97454.13;5031639;28;20222;-72
2021/07/24 05:37:25;;;;;;;13.33;8.63;;;;;;;28.74;51.95;97447.41;5047577;28;20207;-70
2021/07/24 05:39:52;;;;;;;14.07;9.40;;;;;;;29.05;50.84;97456.97;5041055;28;20210;-73
2021/07/24 05:42:19;;;;;;;18.30;9.63;;;;;;;29.53;49.49;97443.50;5046135;28;20234;-73
2021/07/24 05:44:47;;;;;;;17.07;9.63;;;;;;;29.44;50.01;97444.72;5037847;28;20231;-77
2021/07/24 05:47:14;;;;;;;13.23;8.87;;;;;;;30.14;48.03;97458.34;5038567;28;20212;-72
2021/07/24 05:49:41;;;;;;;13.17;9.90;;;;;;;30.21;47.00;97469.63;5034755;28;20198;-72
2021/07/24 05:52:11;;;;;;;14.03;9.83;;;;;;;30.78;46.07;97486.97;5046768;28;20233;-72
2021/07/24 05:54:40;;;;;;;16.60;10.13;;;;;;;29.01;49.83;97477.19;5040353;28;20198;-72
2021/07/24 05:57:08;;;;;;;15.47;10.30;;;;;;;29.70;48.53;97492.09;5045417;28;20210;-75
2021/07/24 05:59:36;;;;;;;15.37;10.23;;;;;;;29.46;48.47;97500.19;5044437;28;20208;-74
2021/07/24 06:02:05;;;;;;;16.77;9.43;;;;;;;29.06;50.33;97510.78;5038215;28;20240;-72
2021/07/24 06:04:33;;;;;;;14.27;9.13;;;;;;;30.00;46.36;97512.88;5033615;28;20712;-72
2021/07/24 06:07:00;;;;;;;14.13;9.60;;;;;;;28.60;51.42;97501.75;5039371;28;20205;-70
2021/07/24 06:09:28;;;;;;;13.90;9.50;;;;;;;29.86;47.38;97520.59;5039835;28;20210;-72
2021/07/24 06:11:56;;;;;;;13.00;9.53;;;;;;;29.61;48.07;97514.19;5035725;28;20220;-73
2021/07/24 06:14:24;;;;;;;14.60;9.03;;;;;;;29.29;52.65;97503.03;5044165;28;20205;-73
2021/07/24 06:16:51;;;;;;;15.50;10.17;;;;;;;29.10;54.20;97494.44;5040067;28;20204;-72
2021/07/24 06:19:19;;;;;;;13.33;9.53;;;;;;;29.23;53.07;97498.88;5032138;28;20216;-73
2021/07/24 06:21:47;;;;;;;14.93;9.83;;;;;;;29.08;55.87;97493.97;5044456;28;20224;-73
2021/07/24 06:24:15;;;;;;;13.13;9.50;;;;;;;29.49;52.06;97497.56;5047025;28;20208;-72
2021/07/24 06:26:42;;;;;;;15.00;9.60;;;;;;;29.33;55.17;97502.03;5034118;28;20216;-72
2021/07/24 06:29:11;;;;;;;15.37;9.30;;;;;;;29.86;53.91;97523.34;5032363;28;20232;-73
2021/07/24 06:31:38;;;;;;;17.83;9.93;;;;;;;29.70;54.65;97534.16;5028722;28;20206;-74
2021/07/24 06:34:06;;;;;;;20.73;9.63;;;;;;;29.73;53.76;97530.75;5031408;28;20204;-74
2021/07/24 06:36:33;;;;;;;14.77;9.43;;;;;;;30.27;51.66;97542.59;5048279;28;20207;-75
2021/07/24 06:39:00;;;;;;;16.13;9.20;;;;;;;30.60;48.45;97549.72;5041255;28;20205;-74
2021/07/24 06:41:30;;;;;;;13.20;8.73;;;;;;;29.99;51.00;97547.84;5038173;28;20208;-73
2021/07/24 06:43:57;;;;;;;13.13;9.40;;;;;;;29.74;49.97;97535.09;5046618;28;20204;-73
2021/07/24 06:46:26;;;;;;;13.27;9.20;;;;;;;28.72;55.04;97521.88;5033116;28;20237;-73
2021/07/24 06:48:53;;;;;;;15.03;9.20;;;;;;;29.65;51.76;97514.31;5036430;28;20209;-73
2021/07/24 06:51:20;;;;;;;13.97;9.70;;;;;;;30.69;47.61;97517.38;5039337;28;20565;-74
2021/07/24 06:53:48;;;;;;;13.50;10.20;;;;;;;29.66;51.93;97507.66;5037858;28;20229;-73
2021/07/24 06:56:15;;;;;;;17.90;10.17;;;;;;;29.74;51.07;97524.09;5047805;28;20219;-73
2021/07/24 06:58:42;;;;;;;15.10;9.20;;;;;;;30.21;49.03;97535.69;5030579;28;20583;-72
2021/07/24 07:01:09;;;;;;;13.77;9.88;;;;;;;29.72;48.26;97528.31;5039157;28;20214;-73
2021/07/24 07:03:38;;;;;;;16.08;10.05;;;;;;;29.84;48.64;97531.94;5047855;28;20316;-72
2021/07/24 07:06:06;;;;;;;14.50;9.60;;;;;;;29.72;48.77;97523.63;5050155;28;20226;-73
2021/07/24 07:08:34;;;;;;;13.77;9.05;;;;;;;29.64;48.56;97513.50;5046689;28;20205;-73
2021/07/24 07:11:04;;;;;;;14.43;8.63;;;;;;;30.04;47.52;97506.34;5051008;28;20700;-69
2021/07/24 07:13:32;;;;;;;14.23;9.13;;;;;;;30.22;45.67;97512.53;5025378;28;20234;-71
2021/07/24 07:16:03;;;;;;;13.85;8.82;;;;;;;30.39;44.89;97515.91;5042851;28;20197;-72
2021/07/24 07:18:30;;;;;;;13.10;8.98;;;;;;;31.13;43.45;97519.25;5047644;28;20660;-74
2021/07/24 07:20:58;;;;;;;14.07;9.10;;;;;;;30.92;44.78;97526.03;5048574;28;20204;-71
2021/07/24 07:23:26;;;;;;;11.90;8.52;;;;;;;30.54;45.48;97542.00;5048613;28;20238;-70
2021/07/24 07:25:53;;;;;;;15.38;8.85;;;;;;;31.38;42.92;97553.16;5041951;28;20305;-73
2021/07/24 07:28:21;;;;;;;15.10;9.48;;;;;;;30.67;44.94;97551.94;5034410;28;20221;-73
2021/07/24 07:30:48;;;;;;;17.88;9.45;;;;;;;29.87;46.68;97552.47;5041722;28;20198;-74
2021/07/24 07:33:16;;;;;;;12.90;9.85;;;;;;;30.05;46.25;97556.72;5042793;28;20304;-75
2021/07/24 07:35:43;;;;;;;15.82;10.05;;;;;;;30.16;46.83;97544.97;5034822;28;20261;-75
2021/07/24 07:38:12;;;;;;;13.65;9.35;;;;;;;30.39;48.21;97553.66;5035912;28;20206;-76
2021/07/24 07:40:39;;;;;;;16.35;8.90;;;;;;;31.46;44.47;97566.84;5042845;28;20209;-72
2021/07/24 07:43:08;;;;;;;13.35;8.95;;;;;;;30.84;44.46;97573.78;5037011;28;20692;-73
2021/07/24 07:45:37;;;;;;;14.00;8.65;;;;;;;30.57;45.70;97566.94;5034257;28;20225;-71
2021/07/24 07:48:05;;;;;;;14.27;8.80;;;;;;;30.78;44.96;97580.66;5045787;28;20217;-71
2021/07/24 07:50:33;;;;;;;17.13;8.68;;;;;;;32.08;40.93;97610.59;5047997;28;20211;-71
2021/07/24 07:53:00;;;;;;;10.38;7.70;;;;;;;31.50;42.72;97611.09;5028657;28;20235;-73
2021/07/24 07:55:29;;;;;;;13.18;9.05;;;;;;;30.23;47.57;97594.78;5038458;28;20207;-72
2021/07/24 07:57:57;;;;;;;11.60;8.90;;;;;;;30.23;49.55;97583.78;5031822;28;20687;-72
2021/07/24 08:00:24;;;;;;;13.18;8.52;;;;;;;30.36;48.98;97596.44;5043122;28;20267;-72
2021/07/24 08:02:52;;;;;;;15.25;8.90;;;;;;;28.76;53.81;97594.25;5042956;28;20241;-72
2021/07/24 08:05:20;;;;;;;11.43;8.13;;;;;;;29.49;53.14;97590.28;5046354;28;20361;-77
2021/07/24 08:07:47;;;;;;;12.13;8.70;;;;;;;30.34;50.32;97584.16;5048907;28;20448;-79
2021/07/24 08:10:15;;;;;;;12.18;8.43;;;;;;;29.84;50.79;97583.44;5053553;28;20227;-74
2021/07/24 08:12:43;;;;;;;13.15;9.50;;;;;;;29.17;53.70;97560.66;5035107;28;20240;-78
2021/07/24 08:15:12;;;;;;;11.65;8.70;;;;;;;28.56;56.18;97530.97;5035079;28;20209;-75
2021/07/24 08:17:39;;;;;;;13.10;8.87;;;;;;;28.61;54.96;97504.16;5037704;28;20279;-77
2021/07/24 08:20:08;;;;;;;13.37;9.20;;;;;;;28.01;60.82;97469.72;5041247;28;20210;-73
2021/07/24 08:22:36;;;;;;;14.17;9.30;;;;;;;27.78;61.46;97462.81;5043383;28;20221;-74
2021/07/24 08:25:03;;;;;;;14.30;8.63;;;;;;;28.66;57.34;97460.03;5043624;28;20775;-76
2021/07/24 08:27:32;;;;;;;14.10;9.60;;;;;;;29.42;58.29;97446.97;5045860;28;20287;-75
2021/07/24 08:30:01;;;;;;;14.77;8.50;;;;;;;30.18;55.04;97462.84;5032412;28;20208;-76
2021/07/24 08:32:28;;;;;;;11.70;8.70;;;;;;;30.75;54.41;97457.34;5044543;28;20325;-78
2021/07/24 08:34:56;;;;;;;13.63;9.27;;;;;;;30.95;51.77;97439.88;5041296;28;20256;-75
2021/07/24 08:37:23;;;;;;;15.00;9.57;;;;;;;30.30;51.91;97442.81;5037213;28;20260;-73
2021/07/24 08:39:51;;;;;;;13.73;9.50;;;;;;;29.85;56.12;97417.19;5043842;28;20194;-76
2021/07/24 08:42:32;;;;;;;13.82;8.95;;;;;;;30.17;53.33;97421.91;5031009;28;20227;-75
2021/07/24 08:45:01;;;;;;;13.20;9.63;;;;;;;29.93;52.08;97428.09;5032900;28;20583;-76
2021/07/24 08:47:29;;;;;;;15.40;9.45;;;;;;;30.97;48.17;97434.84;5028642;28;20198;-74
2021/07/24 08:49:57;;;;;;;13.77;8.43;;;;;;;31.38;47.15;97421.59;5031580;28;20199;-75
2021/07/24 08:52:28;;;;;;;12.25;8.65;;;;;;;32.84;43.88;97426.03;5036190;28;20664;-74
2021/07/24 08:54:55;;;;;;;12.88;9.23;;;;;;;30.15;50.94;97407.69;5032976;28;20554;-78
2021/07/24 08:57:26;;;;;;;13.93;9.18;;;;;;;29.14;52.63;97410.97;5030824;28;20211;-76
2021/07/24 08:59:54;;;;;;;18.75;9.45;;;;;;;29.14;54.25;97404.69;5039176;28;20286;-75
2021/07/24 09:02:26;;;;;;;16.63;9.25;;;;;;;31.00;49.35;97414.84;5028917;28;20250;-78
2021/07/24 09:04:57;;;;;;;12.98;9.60;;;;;;;31.59;46.12;97435.19;5029449;28;20555;-74
2021/07/24 09:07:27;;;;;;;14.00;9.38;;;;;;;29.93;50.06;97419.03;5038783;28;20204;-76
2021/07/24 09:09:57;;;;;;;13.13;9.27;;;;;;;30.27;49.92;97425.03;5032346;28;20194;-71
2021/07/24 09:12:25;;;;;;;13.77;8.52;;;;;;;30.59;48.46;97426.88;5034005;28;20230;-76
2021/07/24 09:14:52;;;;;;;14.13;9.13;;;;;;;31.68;44.11;97430.34;5028874;28;20211;-71
2021/07/24 09:17:20;;;;;;;13.88;9.45;;;;;;;30.47;47.69;97431.59;5032768;28;20199;-72
2021/07/24 09:19:51;;;;;;;14.40;9.60;;;;;;;32.57;42.03;97446.22;5039054;28;20270;-70
2021/07/24 09:22:29;;;;;;;20.20;9.88;;;;;;;33.54;39.40;97472.72;5028743;28;20226;-72
2021/07/24 09:25:07;;;;;;;15.50;9.45;;;;;;;31.60;44.57;97459.69;5030953;28;20205;-72
2021/07/24 09:27:35;;;;;;;16.55;9.30;;;;;;;31.60;45.53;97462.44;5027876;28;20249;-73
2021/07/24 09:30:03;;;;;;;13.90;9.18;;;;;;;32.76;42.07;97468.44;5047179;28;20208;-73
2021/07/24 09:32:31;;;;;;;14.50;8.68;;;;;;;33.69;40.60;97482.94;5032252;28;20222;-72
2021/07/24 09:35:00;;;;;;;13.02;8.63;;;;;;;34.58;38.67;97472.50;5034503;28;20202;-76
2021/07/24 09:37:28;;;;;;;15.65;8.77;;;;;;;34.87;38.28;97488.50;5028362;28;20211;-71
2021/07/24 09:39:56;;;;;;;14.18;9.45;;;;;;;34.42;38.54;97488.44;5033288;28;20219;-69
2021/07/24 09:42:31;;;;;;;15.75;8.88;;;;;;;34.43;38.31;97478.97;5032687;28;20241;-71
2021/07/24 09:45:09;;;;;;;13.80;9.18;;;;;;;34.32;37.45;97475.19;5030439;28;20202;-72
2021/07/24 09:47:36;;;;;;;14.40;9.57;;;;;;;33.21;40.50;97466.00;5024156;28;20216;-71
2021/07/24 09:50:13;;;;;;;10.82;8.05;;;;;;;34.95;36.48;97486.66;5037136;28;20220;-73
2021/07/24 09:52:47;;;;;;;15.93;9.38;;;;;;;33.22;40.47;97470.38;5025189;28;20240;-73
2021/07/24 09:55:23;;;;;;;14.07;9.65;;;;;;;35.09;36.57;97478.56;5037525;28;20202;-72
2021/07/24 09:57:51;;;;;;;12.52;8.88;;;;;;;33.98;37.70;97476.88;5030181;28;20237;-71
2021/07/24 10:00:24;;;;;;;13.48;8.85;;;;;;;34.28;37.72;97465.22;5041333;28;20206;-71
2021/07/24 10:02:58;;;;;;;11.75;8.73;;;;;;;33.82;38.29;97461.50;5028643;28;20226;-72
2021/07/24 10:05:35;;;;;;;16.85;9.10;;;;;;;32.93;40.78;97446.78;5033251;28;20277;-71
2021/07/24 10:08:06;;;;;;;14.57;8.82;;;;;;;31.85;43.18;97439.16;5028488;28;20388;-71
2021/07/24 10:10:38;;;;;;;11.57;9.10;;;;;;;34.13;39.20;97459.38;5034431;28;20842;-70
2021/07/24 10:13:09;;;;;;;13.70;8.93;;;;;;;31.76;43.22;97457.00;5029961;28;20233;-70
2021/07/24 10:15:40;;;;;;;15.13;8.50;;;;;;;33.34;40.18;97464.78;5024021;28;20212;-70
2021/07/24 10:18:09;;;;;;;12.88;8.45;;;;;;;35.11;36.88;97467.88;5023366;28;20213;-70
2021/07/24 10:20:39;;;;;;;13.30;8.40;;;;;;;34.06;37.46;97470.28;5019612;28;20581;-74
2021/07/24 10:23:07;;;;;;;13.02;8.38;;;;;;;33.22;40.73;97454.59;5026616;28;20261;-75
2021/07/24 10:25:48;;;;;;;13.73;8.13;;;;;;;35.12;38.37;97458.38;5027138;28;20220;-71
2021/07/24 10:28:21;;;;;;;12.48;7.97;;;;;;;34.55;35.59;97454.63;5031723;28;20289;-70
2021/07/24 10:30:48;;;;;;;10.52;7.75;;;;;;;32.95;38.25;97433.41;5045461;28;20220;-72
2021/07/24 10:33:17;;;;;;;12.35;8.40;;;;;;;32.92;38.29;97430.56;5030870;28;20232;-70
2021/07/24 10:35:45;;;;;;;8.57;6.95;;;;;;;33.14;38.04;97440.97;5034624;28;20234;-70
2021/07/24 10:38:31;;;;;;;11.50;7.28;;;;;;;33.17;37.60;97435.50;5035395;28;20214;-70
2021/07/24 10:41:38;;;;;;;15.90;7.68;;;;;;;34.01;36.15;97442.91;5040467;28;20220;-70
2021/07/24 10:44:07;;;;;;;9.18;6.45;;;;;;;33.93;35.25;97443.13;4972100;28;20219;-71
2021/07/24 10:47:13;;;;;;;12.35;7.15;;;;;;;33.21;36.82;97433.63;5020621;28;20227;-71
2021/07/24 10:49:57;;;;;;;9.90;6.72;;;;;;;35.77;32.07;97432.81;5037274;28;20237;-71
2021/07/24 10:52:26;;;;;;;7.35;5.20;;;;;;;36.35;29.96;97466.44;5035590;28;20733;-70
2021/07/24 10:55:14;;;;;;;7.07;5.75;;;;;;;37.22;28.44;97460.94;5042434;28;20202;-70
2021/07/24 10:58:06;;;;;;;9.40;5.03;;;;;;;37.20;27.40;97475.22;5024129;28;20194;-70
2021/07/24 11:00:50;;;;;;;8.70;5.38;;;;;;;36.89;27.66;97488.84;5037033;28;20228;-70
2021/07/24 11:03:41;;;;;;;11.65;5.47;;;;;;;36.98;26.52;97478.97;5043018;28;20227;-70
2021/07/24 11:06:28;;;;;;;11.88;5.53;;;;;;;36.90;28.07;97471.78;5031603;28;20226;-70
2021/07/24 11:09:15;;;;;;;7.97;4.82;;;;;;;37.14;27.42;97470.41;5035092;28;20694;-70
2021/07/24 11:11:44;;;;;;;9.63;4.28;;;;;;;36.46;26.78;97473.72;5037473;28;20210;-71
2021/07/24 11:14:50;;;;;;;8.02;4.63;;;;;;;36.92;27.65;97463.06;5029337;28;20214;-71
2021/07/24 11:17:18;;;;;;;6.75;4.43;;;;;;;36.56;27.47;97473.00;5037588;28;20202;-70
2021/07/24 11:20:08;;;;;;;7.45;5.03;;;;;;;36.26;27.43;97477.84;5031273;28;20211;-71
2021/07/24 11:22:37;;;;;;;8.13;4.80;;;;;;;36.98;27.29;97483.78;5034561;28;20762;-69
2021/07/24 11:25:32;;;;;;;6.72;4.32;;;;;;;37.05;25.71;97487.41;5026493;28;20206;-70
2021/07/24 11:28:00;;;;;;;8.50;4.45;;;;;;;36.46;27.23;97479.25;5032097;28;20218;-71
2021/07/24 11:30:28;;;;;;;7.70;4.30;;;;;;;36.22;27.14;97481.78;5038346;28;20260;-71
2021/07/24 11:32:56;;;;;;;9.55;5.10;;;28.80;1.00;;;36.40;26.90;97466.09;5033503;28;20230;-71
2021/07/24 11:35:30;;;;;;;6.95;4.32;;;28.60;1.00;;;36.32;26.94;97464.44;5039117;28;21220;-71
2021/07/24 11:37:59;;;;;;;9.20;4.80;;;28.40;1.00;;;36.99;26.44;97458.34;5033838;28;20217;-72
2021/07/24 11:40:28;;;;;;;6.45;4.65;;;28.40;1.00;;;35.77;28.20;97454.22;5042721;28;20535;-76